Time;durP1;ratioP1;P1;durP2;ratioP2;P2;SDS_P1;SDS_P2;PMS_P1;PMS_P2;Temp;Humidity;BMP_temperature;BMP_pressure;BME280_temperature;BME280_humidity;BME280_pressure;Samples;Min_cycle;Max_cycle;Signal;HPM_P1;HPM_P2
2023/06/11 00:00:04;;;;;;;5.80;2.40;;;14.30;99.90;;;;;;5072576;28;20371;-71
2023/06/11 00:02:33;;;;;;;2.70;1.97;;;14.20;99.90;;;;;;5072545;28;20162;-67
2023/06/11 00:05:07;;;;;;;3.20;2.77;;;14.20;99.90;;;;;;5072036;28;20435;-67
2023/06/11 00:07:34;;;;;;;3.53;2.30;;;14.20;99.90;;;;;;5071929;28;20396;-67
2023/06/11 00:10:06;;;;;;;3.93;2.00;;;14.10;99.90;;;;;;5072237;28;20416;-67
2023/06/11 00:12:33;;;;;;;3.90;2.60;;;14.10;99.90;;;;;;5071355;28;20458;-66
2023/06/11 00:15:02;;;;;;;2.23;1.80;;;14.20;99.90;;;;;;5072649;28;20448;-68
2023/06/11 00:17:29;;;;;;;2.70;2.03;;;14.20;99.90;;;;;;5072769;28;20404;-67
2023/06/11 00:19:54;;;;;;;2.90;2.20;;;14.10;99.90;;;;;;5072276;28;20742;-68
2023/06/11 00:22:20;;;;;;;4.70;2.40;;;14.20;99.90;;;;;;5071187;28;20424;-67
2023/06/11 00:24:46;;;;;;;3.60;2.13;;;14.20;99.90;;;;;;5071769;28;20655;-68
2023/06/11 00:27:12;;;;;;;2.70;1.90;;;14.20;99.90;;;;;;5072375;28;20162;-67
2023/06/11 00:29:37;;;;;;;3.60;2.27;;;14.20;99.90;;;;;;5070683;28;20182;-67
2023/06/11 00:32:03;;;;;;;2.67;2.47;;;14.00;99.90;;;;;;5071659;28;20174;-66
2023/06/11 00:34:29;;;;;;;3.60;2.40;;;14.00;99.90;;;;;;5069297;28;20292;-67
2023/06/11 00:36:55;;;;;;;4.07;2.30;;;13.90;99.90;;;;;;5072519;28;20407;-67
2023/06/11 00:39:20;;;;;;;4.77;2.30;;;13.80;99.90;;;;;;5072557;28;20623;-66
2023/06/11 00:41:48;;;;;;;2.73;2.40;;;13.70;99.90;;;;;;5071550;28;20166;-67
2023/06/11 00:44:18;;;;;;;2.50;2.20;;;13.70;99.90;;;;;;5070592;28;20260;-67
2023/06/11 00:46:48;;;;;;;6.67;2.87;;;13.70;99.90;;;;;;5072514;28;20395;-67
2023/06/11 00:49:14;;;;;;;5.50;2.57;;;13.60;99.90;;;;;;5071043;28;20424;-67
2023/06/11 00:51:45;;;;;;;6.27;2.83;;;13.60;99.90;;;;;;5071410;28;20500;-68
2023/06/11 00:54:16;;;;;;;4.73;2.87;;;13.60;99.90;;;;;;5066943;28;20931;-68
2023/06/11 00:56:45;;;;;;;3.93;2.77;;;13.50;99.90;;;;;;5075992;28;20406;-67
2023/06/11 00:59:17;;;;;;;3.77;2.43;;;13.30;99.90;;;;;;5075844;28;20409;-67
2023/06/11 01:01:59;;;;;;;6.60;2.70;;;13.30;99.90;;;;;;5074111;28;20400;-67
2023/06/11 01:04:29;;;;;;;6.10;2.70;;;13.40;99.90;;;;;;5074869;28;20444;-67
2023/06/11 01:07:00;;;;;;;4.00;2.40;;;13.20;99.90;;;;;;5075824;28;20466;-68
2023/06/11 01:09:29;;;;;;;4.60;2.90;;;13.20;99.90;;;;;;5075842;28;20403;-67
2023/06/11 01:11:55;;;;;;;7.40;2.97;;;13.10;99.90;;;;;;5061600;28;20461;-68
2023/06/11 01:14:21;;;;;;;3.40;2.40;;;13.10;99.90;;;;;;5055383;28;20534;-67
2023/06/11 01:16:52;;;;;;;5.57;3.80;;;13.10;99.90;;;;;;5054643;28;20798;-67
2023/06/11 01:19:28;;;;;;;4.23;3.00;;;13.10;99.90;;;;;;5054726;28;20906;-68
2023/06/11 01:22:00;;;;;;;10.83;3.17;;;13.10;99.90;;;;;;5066420;28;20432;-67
2023/06/11 01:24:51;;;;;;;3.17;2.77;;;13.00;99.90;;;;;;5075233;28;20494;-67
2023/06/11 01:27:35;;;;;;;5.53;2.90;;;12.90;99.90;;;;;;5075380;28;20404;-67
2023/06/11 01:30:04;;;;;;;3.53;3.20;;;12.90;99.90;;;;;;5075104;28;20470;-68
2023/06/11 01:32:31;;;;;;;6.30;3.00;;;13.00;1.00;;;;;;5074153;28;20940;-67
2023/06/11 01:35:01;;;;;;;5.03;3.30;;;13.10;1.00;;;;;;5075171;28;20470;-67
2023/06/11 01:37:29;;;;;;;7.03;2.63;;;13.10;1.00;;;;;;5074228;28;20428;-67
2023/06/11 01:39:56;;;;;;;4.73;2.83;;;13.20;1.00;;;;;;5072750;28;20538;-68
2023/06/11 01:42:22;;;;;;;4.57;2.80;;;13.20;1.00;;;;;;5074405;28;20476;-67
2023/06/11 01:44:47;;;;;;;3.27;2.97;;;13.20;1.00;;;;;;5075030;28;20472;-67
2023/06/11 01:47:15;;;;;;;3.53;2.73;;;13.10;1.00;;;;;;5073644;28;20447;-67
2023/06/11 01:49:41;;;;;;;3.63;2.73;;;13.20;1.00;;;;;;5074105;28;20436;-67
2023/06/11 01:52:07;;;;;;;4.00;2.83;;;13.20;1.00;;;;;;5073085;28;20178;-66
2023/06/11 01:54:33;;;;;;;3.97;3.10;;;13.30;1.00;;;;;;5073759;28;20460;-67
2023/06/11 01:56:58;;;;;;;4.93;2.87;;;13.20;1.00;;;;;;5074836;28;20159;-68
2023/06/11 01:59:24;;;;;;;13.63;3.40;;;13.10;1.00;;;;;;5073596;28;20638;-67
2023/06/11 02:01:52;;;;;;;9.50;3.57;;;13.10;1.00;;;;;;5073877;28;20236;-67
2023/06/11 02:04:20;;;;;;;3.60;2.77;;;13.20;1.00;;;;;;5074532;28;20239;-69
2023/06/11 02:06:46;;;;;;;2.57;2.40;;;13.20;1.00;;;;;;5074415;28;20396;-67
2023/06/11 02:09:12;;;;;;;7.33;3.03;;;13.30;1.00;;;;;;5072434;28;20865;-66
2023/06/11 02:11:38;;;;;;;5.00;3.90;;;13.30;1.00;;;;;;5073599;28;20435;-68
2023/06/11 02:14:03;;;;;;;5.53;2.70;;;13.30;1.00;;;;;;5073521;28;20277;-67
2023/06/11 02:16:29;;;;;;;3.67;2.50;;;13.30;1.00;;;;;;5074430;28;20178;-70
2023/06/11 02:18:55;;;;;;;6.60;2.77;;;13.20;1.00;;;;;;5072630;28;20182;-69
2023/06/11 02:21:21;;;;;;;4.60;3.07;;;13.10;1.00;;;;;;5073483;28;20531;-67
2023/06/11 02:23:46;;;;;;;3.40;2.97;;;13.00;1.00;;;;;;5074200;28;20277;-67
2023/06/11 02:26:12;;;;;;;5.83;3.40;;;13.00;1.00;;;;;;5074247;28;20201;-68
2023/06/11 02:28:38;;;;;;;4.77;2.50;;;13.00;1.00;;;;;;5073159;28;20182;-68
2023/06/11 02:31:03;;;;;;;7.57;2.73;;;13.10;1.00;;;;;;5072400;28;20178;-67
2023/06/11 02:33:29;;;;;;;4.73;3.00;;;13.10;1.00;;;;;;5073113;28;20201;-67
2023/06/11 02:35:55;;;;;;;4.00;3.10;;;13.10;1.00;;;;;;5073970;28;20202;-67
2023/06/11 02:38:21;;;;;;;2.80;2.60;;;12.90;1.00;;;;;;5071910;28;20189;-67
2023/06/11 02:40:47;;;;;;;5.53;3.50;;;12.90;1.00;;;;;;5071933;28;20412;-67
2023/06/11 02:43:12;;;;;;;3.90;3.00;;;12.80;1.00;;;;;;5072601;28;20229;-67
2023/06/11 02:45:38;;;;;;;5.57;5.07;;;12.80;1.00;;;;;;5072743;28;20635;-68
2023/06/11 02:48:04;;;;;;;7.70;3.90;;;12.80;1.00;;;;;;5072948;28;20249;-67
2023/06/11 02:50:29;;;;;;;6.10;3.50;;;12.70;1.00;;;;;;5072899;28;20563;-67
2023/06/11 02:52:56;;;;;;;5.53;3.40;;;12.80;1.00;;;;;;5073534;28;20186;-68
2023/06/11 02:55:22;;;;;;;4.20;3.80;;;12.80;1.00;;;;;;5073585;28;20197;-68
2023/06/11 02:57:47;;;;;;;3.63;3.30;;;12.80;1.00;;;;;;5072397;28;20490;-67
2023/06/11 03:00:13;;;;;;;4.93;3.60;;;12.80;1.00;;;;;;5072663;28;20200;-67
2023/06/11 03:02:39;;;;;;;6.40;4.20;;;12.80;1.00;;;;;;5073543;28;20173;-68
2023/06/11 03:05:05;;;;;;;8.00;3.47;;;12.90;1.00;;;;;;5072921;28;20433;-68
2023/06/11 03:07:31;;;;;;;3.70;3.40;;;13.00;1.00;;;;;;5072325;28;20540;-68
2023/06/11 03:09:57;;;;;;;7.97;4.80;;;13.00;1.00;;;;;;5072173;28;20491;-67
2023/06/11 03:12:23;;;;;;;10.60;4.10;;;13.10;1.00;;;;;;5071507;28;20178;-68
2023/06/11 03:14:50;;;;;;;4.47;3.10;;;13.20;1.00;;;;;;5072203;28;20232;-68
2023/06/11 03:17:15;;;;;;;3.73;3.43;;;13.20;1.00;;;;;;5072018;28;20185;-66
2023/06/11 03:19:41;;;;;;;4.57;3.27;;;13.30;1.00;;;;;;5071904;28;20431;-68
2023/06/11 03:22:07;;;;;;;4.90;3.50;;;13.30;1.00;;;;;;5072505;28;20223;-66
2023/06/11 03:24:32;;;;;;;5.73;3.40;;;13.30;1.00;;;;;;5072201;28;20198;-68
2023/06/11 03:26:58;;;;;;;5.03;3.40;;;13.30;1.00;;;;;;5072395;28;20231;-69
2023/06/11 03:29:24;;;;;;;3.43;3.13;;;13.40;1.00;;;;;;5073214;28;20181;-68
2023/06/11 03:31:49;;;;;;;12.60;4.80;;;13.30;1.00;;;;;;5072271;28;20197;-67
2023/06/11 03:34:15;;;;;;;8.37;3.57;;;13.40;1.00;;;;;;5072905;28;20659;-68
2023/06/11 03:36:41;;;;;;;6.07;3.60;;;13.40;1.70;;;;;;5072294;28;20227;-68
2023/06/11 03:39:06;;;;;;;10.33;4.67;;;13.50;8.40;;;;;;5073057;28;20167;-66
2023/06/11 03:41:32;;;;;;;9.20;3.90;;;13.50;12.00;;;;;;5070667;28;20174;-69
2023/06/11 03:43:58;;;;;;;9.80;3.13;;;13.60;18.00;;;;;;5072373;28;20202;-66
2023/06/11 03:46:24;;;;;;;3.80;3.50;;;13.60;18.50;;;;;;5072206;28;20188;-67
2023/06/11 03:48:49;;;;;;;4.37;3.40;;;13.60;22.20;;;;;;5073033;28;20177;-67
2023/06/11 03:51:15;;;;;;;4.80;3.80;;;13.60;28.30;;;;;;5072018;28;20573;-68
2023/06/11 03:53:41;;;;;;;5.10;3.87;;;13.60;35.00;;;;;;5072699;28;20200;-67
2023/06/11 03:56:07;;;;;;;6.00;3.20;;;13.70;40.90;;;;;;5070710;28;20537;-67
2023/06/11 03:58:33;;;;;;;4.27;3.90;;;13.90;47.30;;;;;;5071579;28;20166;-67
2023/06/11 04:00:58;;;;;;;5.23;3.93;;;13.90;43.90;;;;;;5071062;28;20170;-67
2023/06/11 04:03:24;;;;;;;7.20;3.37;;;14.00;40.30;;;;;;5071978;28;20547;-68
2023/06/11 04:05:50;;;;;;;7.13;3.80;;;14.10;33.10;;;;;;5071948;28;20277;-67
2023/06/11 04:08:16;;;;;;;4.43;3.27;;;14.10;25.90;;;;;;5072786;28;20562;-68
2023/06/11 04:10:43;;;;;;;4.23;3.43;;;14.10;14.60;;;;;;5071921;28;20170;-67
2023/06/11 04:13:08;;;;;;;6.83;3.10;;;14.10;13.10;;;;;;5071367;28;20190;-68
2023/06/11 04:15:34;;;;;;;7.13;4.73;;;14.20;3.00;;;;;;5071753;28;20468;-67
2023/06/11 04:18:00;;;;;;;6.40;4.40;;;14.20;1.00;;;;;;5072181;28;20244;-68
2023/06/11 04:20:25;;;;;;;4.93;3.00;;;14.30;1.00;;;;;;5071244;28;20577;-67
2023/06/11 04:22:52;;;;;;;7.50;3.20;;;14.30;1.00;;;;;;5070775;28;20225;-68
2023/06/11 04:25:18;;;;;;;7.33;3.37;;;14.30;1.00;;;;;;5072661;28;20220;-67
2023/06/11 04:27:46;;;;;;;9.53;3.83;;;14.40;1.00;;;;;;5072500;28;20395;-68
2023/06/11 04:30:13;;;;;;;3.93;3.30;;;14.50;1.00;;;;;;5073791;28;20170;-70
2023/06/11 04:32:40;;;;;;;6.33;3.87;;;14.50;1.00;;;;;;5075635;28;20408;-67
2023/06/11 04:35:06;;;;;;;7.50;2.97;;;14.60;1.00;;;;;;5076318;28;20448;-67
2023/06/11 04:37:38;;;;;;;9.13;3.80;;;14.60;1.00;;;;;;5075576;28;20407;-68
2023/06/11 04:40:09;;;;;;;3.93;2.80;;;14.60;1.00;;;;;;5075845;28;20483;-73
2023/06/11 04:42:36;;;;;;;5.43;3.90;;;14.60;1.00;;;;;;5075223;28;20420;-67
2023/06/11 04:45:04;;;;;;;3.97;3.10;;;14.70;1.00;;;;;;5075999;28;20435;-67
2023/06/11 04:47:32;;;;;;;4.60;3.00;;;14.80;1.00;;;;;;5076203;28;20408;-67
2023/06/11 04:50:02;;;;;;;6.17;2.70;;;14.90;1.00;;;;;;5075800;28;20407;-67
2023/06/11 04:52:32;;;;;;;6.70;3.20;;;14.90;1.00;;;;;;5075435;28;20433;-68
2023/06/11 04:55:01;;;;;;;5.53;3.53;;;15.00;1.00;;;;;;5075619;28;20483;-68
2023/06/11 04:57:28;;;;;;;3.67;3.30;;;15.00;1.00;;;;;;5075052;28;20401;-67
2023/06/11 04:59:53;;;;;;;4.90;3.23;;;15.00;1.00;;;;;;5074556;28;20412;-70
2023/06/11 05:02:21;;;;;;;4.87;3.00;;;15.10;1.00;;;;;;5074304;28;20913;-68
2023/06/11 05:04:49;;;;;;;4.37;2.97;;;15.20;1.00;;;;;;5074531;28;20191;-67
2023/06/11 05:07:17;;;;;;;7.00;3.03;;;15.30;1.00;;;;;;5075740;28;20401;-68
2023/06/11 05:09:44;;;;;;;4.93;3.10;;;15.30;1.00;;;;;;5075763;28;20436;-67
2023/06/11 05:12:10;;;;;;;3.97;2.97;;;15.30;1.00;;;;;;5073883;28;20984;-68
2023/06/11 05:14:36;;;;;;;8.60;3.50;;;15.30;1.00;;;;;;5074206;28;20551;-67
2023/06/11 05:17:03;;;;;;;8.37;4.57;;;15.30;1.00;;;;;;5075546;28;20420;-67
2023/06/11 05:19:29;;;;;;;5.80;3.30;;;15.30;1.00;;;;;;5075779;28;20568;-67
2023/06/11 05:21:55;;;;;;;7.03;3.50;;;15.30;1.00;;;;;;5073781;28;20429;-68
2023/06/11 05:24:21;;;;;;;6.17;3.10;;;15.40;1.00;;;;;;5075276;28;20447;-69
2023/06/11 05:26:47;;;;;;;3.40;3.10;;;15.50;1.00;;;;;;5074174;28;20178;-67
2023/06/11 05:29:13;;;;;;;5.17;3.20;;;15.60;1.00;;;;;;5075303;28;20400;-68
2023/06/11 05:31:39;;;;;;;3.53;2.83;;;15.60;1.00;;;;;;5072669;28;20424;-69
2023/06/11 05:34:05;;;;;;;6.40;3.40;;;15.70;1.00;;;;;;5075214;28;20420;-69
2023/06/11 05:36:31;;;;;;;4.70;2.90;;;15.80;1.00;;;;;;5075005;28;20459;-69
2023/06/11 05:38:56;;;;;;;6.00;3.80;;;15.90;1.00;;;;;;5075186;28;20559;-69
2023/06/11 05:41:22;;;;;;;9.90;3.23;;;15.90;1.00;;;;;;5071670;28;20412;-68
2023/06/11 05:43:48;;;;;;;7.67;3.53;;;16.00;1.00;;;;;;5074915;28;20224;-68
2023/06/11 05:46:15;;;;;;;7.57;3.10;;;16.10;1.00;;;;;;5074996;28;20738;-66
2023/06/11 05:48:43;;;;;;;5.67;3.00;;;16.10;1.00;;;;;;5074842;28;20908;-68
2023/06/11 05:51:10;;;;;;;11.33;4.33;;;16.20;1.00;;;;;;5072984;28;20878;-73
2023/06/11 05:53:35;;;;;;;6.80;2.50;;;16.30;1.00;;;;;;5074514;28;20447;-69
2023/06/11 05:56:03;;;;;;;12.13;3.17;;;16.30;1.00;;;;;;5074829;28;20808;-68
2023/06/11 05:58:33;;;;;;;5.10;3.60;;;16.40;1.00;;;;;;5074745;28;20190;-69
2023/06/11 06:01:02;;;;;;;6.50;3.17;;;16.40;1.00;;;;;;5073846;28;20396;-65
2023/06/11 06:03:33;;;;;;;2.73;2.53;;;16.50;1.00;;;;;;5073716;28;20459;-66
2023/06/11 06:06:01;;;;;;;5.20;3.20;;;16.60;1.00;;;;;;5074580;28;20518;-68
2023/06/11 06:08:31;;;;;;;4.60;3.40;;;16.70;1.00;;;;;;5073347;28;20417;-68
2023/06/11 06:10:57;;;;;;;3.03;2.77;;;16.70;1.00;;;;;;5071418;28;20439;-68
2023/06/11 06:13:26;;;;;;;5.83;3.20;;;16.80;1.00;;;;;;5072409;28;20798;-68
2023/06/11 06:15:55;;;;;;;3.40;2.90;;;16.80;1.00;;;;;;5072953;28;20547;-68
2023/06/11 06:18:20;;;;;;;4.00;2.67;;;16.90;1.00;;;;;;5074386;28;20400;-69
2023/06/11 06:20:46;;;;;;;5.93;2.87;;;17.00;1.00;;;;;;5071671;28;20935;-68
2023/06/11 06:23:12;;;;;;;7.43;2.83;;;17.10;1.00;;;;;;5074196;28;20979;-66
2023/06/11 06:25:38;;;;;;;4.03;3.07;;;17.10;1.00;;;;;;5072932;28;20187;-66
2023/06/11 06:28:05;;;;;;;7.17;3.43;;;17.20;1.00;;;;;;5073558;28;20194;-68
2023/06/11 06:30:35;;;;;;;4.07;2.90;;;17.20;1.00;;;;;;5072428;28;20178;-69
2023/06/11 06:33:01;;;;;;;2.93;2.73;;;17.40;1.00;;;;;;5073908;28;20425;-66
2023/06/11 06:35:29;;;;;;;5.47;2.93;;;17.40;1.00;;;;;;5072714;28;20876;-68
2023/06/11 06:37:55;;;;;;;5.23;3.00;;;17.60;1.00;;;;;;5073775;28;20412;-68
2023/06/11 06:40:20;;;;;;;3.83;2.93;;;17.60;1.00;;;;;;5072145;28;20451;-66
2023/06/11 06:42:46;;;;;;;3.90;2.70;;;17.70;1.00;;;;;;5072903;28;20194;-68
2023/06/11 06:45:12;;;;;;;6.07;3.13;;;17.80;1.00;;;;;;5069494;28;21504;-65
2023/06/11 06:47:38;;;;;;;15.00;3.57;;;17.90;1.00;;;;;;5073652;28;20230;-65
2023/06/11 06:50:04;;;;;;;3.90;2.70;;;17.90;1.00;;;;;;5069779;28;20179;-73
2023/06/11 06:52:29;;;;;;;4.00;2.90;;;18.00;1.00;;;;;;5072648;28;20201;-68
2023/06/11 06:54:55;;;;;;;5.67;3.13;;;18.10;1.00;;;;;;5071585;28;20858;-66
2023/06/11 06:57:21;;;;;;;4.30;3.00;;;18.20;1.00;;;;;;5073721;28;20263;-68
2023/06/11 06:59:46;;;;;;;5.10;2.83;;;18.20;1.00;;;;;;5072686;28;20282;-68
2023/06/11 07:02:12;;;;;;;6.90;2.80;;;18.30;1.00;;;;;;5071790;28;20170;-69
2023/06/11 07:04:38;;;;;;;3.50;2.27;;;18.30;1.00;;;;;;5072337;28;20702;-68
2023/06/11 07:07:04;;;;;;;4.80;2.70;;;18.50;1.00;;;;;;5064230;28;20182;-68
2023/06/11 07:09:30;;;;;;;4.20;3.00;;;18.60;1.00;;;;;;5073450;28;20400;-68
2023/06/11 07:11:56;;;;;;;2.90;2.50;;;18.70;1.00;;;;;;5072415;28;20405;-68
2023/06/11 07:14:21;;;;;;;2.97;2.50;;;18.80;99.90;;;;;;5073185;28;20182;-68
2023/06/11 07:16:47;;;;;;;7.07;3.60;;;18.90;99.90;;;;;;5072445;28;20647;-68
2023/06/11 07:19:13;;;;;;;4.00;2.93;;;18.90;99.90;;;;;;5073124;28;20175;-69
2023/06/11 07:21:39;;;;;;;4.50;3.00;;;19.00;99.90;;;;;;5070613;28;20177;-68
2023/06/11 07:24:05;;;;;;;3.60;3.00;;;19.10;99.90;;;;;;5072642;28;20205;-68
2023/06/11 07:26:31;;;;;;;4.90;3.40;;;19.20;99.90;;;;;;5073191;28;20407;-68
2023/06/11 07:28:58;;;;;;;5.73;3.77;;;19.30;99.90;;;;;;5072084;28;20408;-69
2023/06/11 07:31:23;;;;;;;3.00;2.77;;;19.40;99.90;;;;;;5071485;28;20435;-68
2023/06/11 07:33:49;;;;;;;4.07;2.77;;;19.50;99.90;;;;;;5073045;28;20769;-68
2023/06/11 07:36:16;;;;;;;5.67;2.87;;;19.60;99.90;;;;;;5073018;28;20327;-68
2023/06/11 07:38:43;;;;;;;2.47;2.27;;;19.60;99.90;;;;;;5072850;28;20699;-69
2023/06/11 07:41:10;;;;;;;3.93;2.80;;;19.70;99.90;;;;;;5070794;28;20420;-68
2023/06/11 07:43:36;;;;;;;3.70;2.63;;;19.80;99.90;;;;;;5072778;28;20533;-68
2023/06/11 07:46:03;;;;;;;4.87;2.50;;;19.90;99.90;;;;;;5073079;28;20432;-68
2023/06/11 07:48:29;;;;;;;2.60;2.40;;;20.00;99.90;;;;;;5072944;28;20158;-68
2023/06/11 07:50:55;;;;;;;3.43;2.20;;;20.10;99.90;;;;;;5070582;28;20427;-70
2023/06/11 07:53:21;;;;;;;8.80;2.90;;;20.30;99.90;;;;;;5072811;28;20439;-67
2023/06/11 07:55:49;;;;;;;5.13;2.53;;;20.40;99.90;;;;;;5072789;28;20547;-68
2023/06/11 07:58:15;;;;;;;8.40;3.00;;;20.40;99.90;;;;;;5072826;28;20890;-68
2023/06/11 08:00:41;;;;;;;4.13;2.50;;;20.50;99.90;;;;;;5070256;28;20955;-68
2023/06/11 08:03:08;;;;;;;6.90;2.90;;;20.60;99.90;;;;;;5073129;28;20416;-68
2023/06/11 08:05:34;;;;;;;5.70;2.83;;;20.70;99.90;;;;;;5076848;28;20495;-70
2023/06/11 08:08:00;;;;;;;3.03;2.67;;;20.80;99.90;;;;;;5075742;28;20491;-67
2023/06/11 08:10:25;;;;;;;5.30;2.47;;;20.90;99.90;;;;;;5075220;28;20431;-68
2023/06/11 08:12:51;;;;;;;4.63;2.53;;;21.00;99.90;;;;;;5076859;28;20274;-69
2023/06/11 08:15:17;;;;;;;4.07;2.87;;;21.20;99.90;;;;;;5074478;28;20198;-69
2023/06/11 08:17:43;;;;;;;3.60;3.30;;;21.20;99.90;;;;;;5075589;28;20166;-67
2023/06/11 08:20:09;;;;;;;3.30;2.60;;;21.30;99.90;;;;;;5075870;28;20393;-67
2023/06/11 08:22:35;;;;;;;2.57;2.37;;;21.40;99.90;;;;;;5076512;28;20196;-68
2023/06/11 08:25:01;;;;;;;7.00;2.40;;;21.60;99.90;;;;;;5075795;28;20436;-69
2023/06/11 08:27:26;;;;;;;3.40;3.10;;;21.70;99.90;;;;;;5076622;28;20158;-67
2023/06/11 08:29:52;;;;;;;6.90;2.97;;;21.80;99.90;;;;;;5076155;28;20204;-69
2023/06/11 08:32:18;;;;;;;8.67;3.20;;;21.80;99.90;;;;;;5074591;28;20538;-69
2023/06/11 08:34:43;;;;;;;7.63;2.80;;;21.80;99.90;;;;;;5076284;28;20190;-69
2023/06/11 08:37:09;;;;;;;8.00;2.80;;;22.00;99.90;;;;;;5075455;28;20639;-67
2023/06/11 08:39:35;;;;;;;3.50;2.40;;;22.10;99.90;;;;;;5076278;28;20158;-68
2023/06/11 08:42:01;;;;;;;5.67;3.17;;;22.30;99.90;;;;;;5073420;28;20566;-69
2023/06/11 08:44:27;;;;;;;3.33;2.30;;;22.30;99.90;;;;;;5076089;28;20209;-68
2023/06/11 08:46:56;;;;;;;5.47;2.90;;;22.40;99.90;;;;;;5076259;28;20526;-68
2023/06/11 08:49:22;;;;;;;3.40;2.60;;;22.50;99.90;;;;;;5076274;28;20174;-67
2023/06/11 08:51:49;;;;;;;2.50;2.23;;;22.70;99.90;;;;;;5074142;28;20401;-68
2023/06/11 08:54:16;;;;;;;3.23;2.50;;;22.70;99.90;;;;;;5055895;28;20428;-68
2023/06/11 08:56:43;;;;;;;6.30;2.70;;;22.80;99.90;;;;;;5055007;28;20417;-69
2023/06/11 08:59:09;;;;;;;7.27;3.03;;;22.90;99.90;;;;;;5055961;28;20716;-67
2023/06/11 09:01:35;;;;;;;3.03;2.83;;;23.00;99.90;;;;;;5054973;28;20428;-69
2023/06/11 09:04:00;;;;;;;3.23;2.87;;;23.00;99.90;;;;;;5073587;28;20190;-69
2023/06/11 09:06:27;;;;;;;7.53;3.00;;;23.10;99.90;;;;;;5075799;28;20706;-67
2023/06/11 09:09:07;;;;;;;5.73;2.90;;;23.40;99.90;;;;;;5075825;28;20166;-69
2023/06/11 09:11:37;;;;;;;5.80;2.60;;;23.60;99.90;;;;;;5074817;28;20901;-70
2023/06/11 09:14:05;;;;;;;5.03;2.73;;;23.80;99.90;;;;;;5073917;28;20444;-69
2023/06/11 09:16:42;;;;;;;5.33;2.53;;;23.80;99.90;;;;;;5074753;28;20971;-67
2023/06/11 09:19:16;;;;;;;2.87;2.60;;;23.70;99.90;;;;;;5075562;28;20400;-68
2023/06/11 09:21:52;;;;;;;2.50;2.30;;;23.60;99.90;;;;;;5073829;28;20420;-67
2023/06/11 09:24:19;;;;;;;2.60;2.40;;;23.70;99.90;;;;;;5075142;28;20448;-69
2023/06/11 09:26:50;;;;;;;4.33;2.80;;;23.80;99.90;;;;;;5075563;28;20393;-67
2023/06/11 09:29:16;;;;;;;4.60;3.53;;;23.80;99.90;;;;;;5075360;28;20479;-67
2023/06/11 09:31:42;;;;;;;3.20;2.63;;;23.70;99.90;;;;;;5073692;28;20436;-68
2023/06/11 09:34:12;;;;;;;7.63;2.67;;;23.40;99.90;;;;;;5074344;28;20417;-67
2023/06/11 09:36:37;;;;;;;2.20;2.00;;;23.50;99.90;;;;;;5073857;28;20605;-71
2023/06/11 09:39:03;;;;;;;3.93;2.57;;;23.90;99.90;;;;;;5075215;28;20443;-68
2023/06/11 09:41:30;;;;;;;5.30;2.60;;;24.20;99.90;;;;;;5073729;28;20194;-70
2023/06/11 09:43:56;;;;;;;5.20;2.77;;;24.60;99.90;;;;;;5074934;28;20444;-69
2023/06/11 09:46:23;;;;;;;6.23;3.20;;;24.80;99.90;;;;;;5074997;28;20811;-71
2023/06/11 09:48:49;;;;;;;3.47;2.27;;;25.00;99.90;;;;;;5075213;28;20408;-69
2023/06/11 09:51:21;;;;;;;3.70;2.33;;;25.20;99.90;;;;;;5072048;28;20459;-70
2023/06/11 09:53:51;;;;;;;5.37;2.17;;;25.50;99.90;;;;;;5074708;28;20501;-70
2023/06/11 09:56:18;;;;;;;5.57;2.90;;;25.70;99.90;;;;;;5073470;28;20456;-72
2023/06/11 09:58:47;;;;;;;6.13;2.30;;;25.90;99.90;;;;;;5074805;28;20484;-70
2023/06/11 10:01:13;;;;;;;3.13;2.87;;;26.00;99.90;;;;;;5072397;28;20425;-70
2023/06/11 10:03:40;;;;;;;4.07;2.20;;;26.30;99.90;;;;;;5074678;28;20790;-69
2023/06/11 10:06:10;;;;;;;4.33;2.43;;;26.20;99.90;;;;;;5074829;28;20942;-69
2023/06/11 10:08:36;;;;;;;2.50;2.30;;;26.50;99.90;;;;;;5074438;28;20526;-71
2023/06/11 10:11:03;;;;;;;3.67;2.50;;;26.40;99.90;;;;;;5071079;28;20515;-69
2023/06/11 10:13:34;;;;;;;2.20;2.00;;;26.00;99.90;;;;;;5055416;28;20434;-71
2023/06/11 10:16:07;;;;;;;11.43;2.50;;;26.40;99.90;;;;;;5059015;28;20480;-68
2023/06/11 10:18:33;;;;;;;8.97;3.00;;;26.20;99.90;;;;;;5073240;28;20413;-68
2023/06/11 10:21:03;;;;;;;12.50;2.13;;;26.30;99.90;;;;;;5073484;28;20492;-67
2023/06/11 10:23:39;;;;;;;3.63;2.97;;;26.20;99.90;;;;;;5074340;28;20440;-67
2023/06/11 10:26:05;;;;;;;2.63;2.43;;;26.20;99.90;;;;;;5073552;28;20442;-64
2023/06/11 10:28:41;;;;;;;5.47;2.60;;;26.00;99.90;;;;;;5072274;28;20404;-67
2023/06/11 10:31:07;;;;;;;8.00;2.20;;;26.40;99.90;;;;;;5073311;28;20432;-68
2023/06/11 10:33:40;;;;;;;3.10;2.50;;;26.70;99.90;;;;;;5074123;28;20478;-68
2023/06/11 10:36:06;;;;;;;3.30;2.27;;;27.00;99.90;;;;;;5073172;28;20206;-67
2023/06/11 10:38:37;;;;;;;4.53;2.70;;;27.20;99.90;;;;;;5074011;28;20401;-66
2023/06/11 10:41:03;;;;;;;2.77;2.57;;;27.00;99.90;;;;;;5073036;28;20162;-72
2023/06/11 10:43:34;;;;;;;3.90;2.77;;;27.10;99.90;;;;;;5073851;28;20433;-70
2023/06/11 10:46:04;;;;;;;2.57;2.00;;;27.00;99.90;;;;;;5073367;28;20956;-68
2023/06/11 10:48:31;;;;;;;3.27;2.30;;;27.10;99.90;;;;;;5073093;28;20397;-70
2023/06/11 10:51:03;;;;;;;9.57;3.63;;;26.80;99.90;;;;;;5072782;28;20484;-71
2023/06/11 10:53:40;;;;;;;4.10;2.33;;;26.50;99.90;;;;;;5073817;28;20416;-68
2023/06/11 10:56:08;;;;;;;3.90;2.53;;;26.60;99.90;;;;;;5070003;28;20825;-68
2023/06/11 10:58:34;;;;;;;4.63;2.97;;;26.20;99.90;;;;;;5073704;28;20416;-67
2023/06/11 11:01:00;;;;;;;2.70;2.50;;;26.50;99.90;;;;;;5072661;28;20400;-73
2023/06/11 11:03:30;;;;;;;9.90;2.60;;;27.10;99.90;;;;;;5073644;28;20412;-73
2023/06/11 11:05:57;;;;;;;3.07;2.27;;;27.60;99.90;;;;;;5072717;28;20262;-70
2023/06/11 11:08:23;;;;;;;4.83;2.40;;;27.50;99.90;;;;;;5072412;28;21093;-73
2023/06/11 11:10:59;;;;;;;4.53;2.87;;;27.30;99.90;;;;;;5072650;28;20391;-70
2023/06/11 11:13:25;;;;;;;5.17;2.30;;;27.40;99.90;;;;;;5071708;28;20427;-71
2023/06/11 11:15:51;;;;;;;2.70;2.30;;;27.40;99.90;;;;;;5070971;28;20512;-71
2023/06/11 11:18:17;;;;;;;4.90;2.33;;;27.40;99.90;;;;;;5073398;28;20864;-73
2023/06/11 11:20:47;;;;;;;4.33;2.63;;;27.70;99.90;;;;;;5072499;28;20401;-72
2023/06/11 11:23:13;;;;;;;10.90;9.90;;;27.80;99.90;;;;;;5073054;28;20174;-69
2023/06/11 11:25:41;;;;;;;7.20;3.90;;;27.20;99.90;;;;;;5071548;28;20436;-73
2023/06/11 11:28:06;;;;;;;4.97;3.00;;;27.60;99.90;;;;;;5070404;28;20205;-71
2023/06/11 11:30:32;;;;;;;5.73;2.90;;;28.00;99.90;;;;;;5072279;28;20456;-69
2023/06/11 11:32:58;;;;;;;3.20;2.30;;;27.50;99.90;;;;;;5073083;28;20213;-72
2023/06/11 11:35:26;;;;;;;2.90;2.70;;;27.40;99.90;;;;;;5072173;28;20308;-69
2023/06/11 11:37:54;;;;;;;7.03;2.77;;;27.30;99.90;;;;;;5072740;28;20400;-71
2023/06/11 11:40:22;;;;;;;4.90;2.57;;;26.90;99.90;;;;;;5072199;28;20885;-69
2023/06/11 11:42:52;;;;;;;4.63;3.00;;;26.90;99.90;;;;;;5072409;28;20424;-73
2023/06/11 11:45:19;;;;;;;5.37;2.40;;;27.40;99.90;;;;;;5070324;28;20542;-73
2023/06/11 11:47:50;;;;;;;3.73;2.60;;;28.00;99.90;;;;;;5071743;28;20770;-69
2023/06/11 11:50:22;;;;;;;6.60;2.43;;;28.10;99.90;;;;;;5071203;28;20482;-71
2023/06/11 11:53:05;;;;;;;5.40;2.90;;;28.10;99.90;;;;;;5073075;28;20498;-71
2023/06/11 11:55:36;;;;;;;7.43;2.70;;;28.50;99.90;;;;;;5071625;28;20456;-74
2023/06/11 11:58:09;;;;;;;6.97;2.80;;;29.30;99.90;;;;;;5072914;28;20403;-74
2023/06/11 12:00:37;;;;;;;2.67;2.03;;;29.80;99.90;;;;;;5071220;28;21035;-74
2023/06/11 12:03:10;;;;;;;2.47;2.27;;;29.30;99.90;;;;;;5072732;28;20424;-71
2023/06/11 12:05:36;;;;;;;5.60;2.70;;;28.60;99.90;;;;;;5071868;28;20527;-75
2023/06/11 12:08:03;;;;;;;9.50;2.17;;;28.60;99.90;;;;;;5072894;28;20501;-71
2023/06/11 12:10:29;;;;;;;2.90;2.70;;;29.00;99.90;;;;;;5071898;28;20397;-74
2023/06/11 12:12:55;;;;;;;5.27;2.13;;;28.70;99.90;;;;;;5072586;28;20500;-72
2023/06/11 12:15:20;;;;;;;3.30;1.90;;;28.80;99.90;;;;;;5069862;28;20669;-73
2023/06/11 12:17:46;;;;;;;6.73;2.57;;;29.10;99.90;;;;;;5071890;28;20254;-72
2023/06/11 12:20:12;;;;;;;5.77;2.43;;;29.60;99.90;;;;;;5071129;28;20168;-72
2023/06/11 12:22:38;;;;;;;4.37;2.20;;;29.70;99.90;;;;;;5072611;28;20238;-73
2023/06/11 12:25:05;;;;;;;2.70;2.10;;;30.10;99.90;;;;;;5069893;28;20511;-71
2023/06/11 12:27:31;;;;;;;4.43;2.53;;;30.80;99.90;;;;;;5072530;28;20765;-70
2023/06/11 12:29:57;;;;;;;2.70;2.33;;;31.00;99.90;;;;;;5071464;28;20428;-71
2023/06/11 12:32:24;;;;;;;2.60;2.40;;;31.00;99.90;;;;;;5071945;28;20169;-68
2023/06/11 12:34:51;;;;;;;4.90;2.40;;;30.30;99.90;;;;;;5070381;28;20513;-67
2023/06/11 12:37:17;;;;;;;8.87;2.47;;;29.80;99.90;;;;;;5072528;28;20419;-72
2023/06/11 12:39:43;;;;;;;4.70;2.70;;;29.30;99.90;;;;;;5067454;28;20444;-68
2023/06/11 12:42:15;;;;;;;7.50;2.33;;;29.10;99.90;;;;;;5071490;28;20388;-71
2023/06/11 12:44:41;;;;;;;4.17;2.23;;;28.00;99.90;;;;;;5071475;28;20824;-64
2023/06/11 12:47:08;;;;;;;3.20;2.30;;;27.50;99.90;;;;;;5070179;28;20421;-72
2023/06/11 12:49:34;;;;;;;4.63;2.03;;;27.30;99.90;;;;;;5070888;28;20504;-70